Terminal Aerodrome Forecast
Issued by NWS Charleston, WV

Current Version | Previous Version | Graphics & Text | Print | Product List | Glossary On
Versions: 1 2 3 4 5 6 7 8 9 10 11 12 13 14 15 16 17 18 19 20 21 22 23 24 25 26
000
FTUS41 KRLX 131400 AAA
TAFPKB
TAF AMD
KPKB 131440Z 1315/1412 VRB03KT 5SM BR VCSH BKN025 OVC035
     FM131500 31004KT P6SM BKN025 OVC035
     FM131900 31007KT P6SM SCT025 BKN035
     FM140000 33004KT P6SM SCT250
     FM140400 00000KT 6SM BR FEW250=

USA.gov is the U.S. government's official web portal to all federal, state and local government web resources and services.